sensor_id;sensor_type;location;lat;lon;timestamp;noise_LAeq;noise_LA_min;noise_LA_max;noise_LA01;noise_LA95
47923;Laerm;33688;44.354;9.228;2024-02-26T00:01:52;35.78;35.09;37.32;;
47923;Laerm;33688;44.354;9.228;2024-02-26T00:04:18;35.79;35.09;42.01;;
47923;Laerm;33688;44.354;9.228;2024-02-26T00:06:45;35.78;35.18;36.57;;
47923;Laerm;33688;44.354;9.228;2024-02-26T00:09:11;35.78;35.04;36.77;;
47923;Laerm;33688;44.354;9.228;2024-02-26T00:11:36;35.77;35.14;36.67;;
47923;Laerm;33688;44.354;9.228;2024-02-26T00:14:03;35.78;35.19;36.76;;
47923;Laerm;33688;44.354;9.228;2024-02-26T00:16:29;35.78;35.17;37.28;;
47923;Laerm;33688;44.354;9.228;2024-02-26T00:18:56;35.80;34.84;42.80;;
47923;Laerm;33688;44.354;9.228;2024-02-26T00:21:21;35.78;35.12;36.87;;
47923;Laerm;33688;44.354;9.228;2024-02-26T00:23:49;35.79;34.98;36.45;;
47923;Laerm;33688;44.354;9.228;2024-02-26T00:26:17;35.78;35.04;36.50;;
47923;Laerm;33688;44.354;9.228;2024-02-26T00:28:43;35.77;35.17;36.50;;
47923;Laerm;33688;44.354;9.228;2024-02-26T00:31:09;35.78;35.17;36.53;;
47923;Laerm;33688;44.354;9.228;2024-02-26T00:33:36;35.79;35.09;36.59;;
47923;Laerm;33688;44.354;9.228;2024-02-26T00:36:02;35.82;35.06;37.20;;
47923;Laerm;33688;44.354;9.228;2024-02-26T00:38:28;35.81;35.07;36.59;;
47923;Laerm;33688;44.354;9.228;2024-02-26T00:40:54;35.82;35.04;37.25;;
47923;Laerm;33688;44.354;9.228;2024-02-26T00:43:21;35.82;35.03;40.84;;
47923;Laerm;33688;44.354;9.228;2024-02-26T00:45:47;35.81;35.06;36.62;;
47923;Laerm;33688;44.354;9.228;2024-02-26T00:48:13;35.82;34.94;37.17;;
47923;Laerm;33688;44.354;9.228;2024-02-26T00:50:39;35.83;35.16;36.72;;
47923;Laerm;33688;44.354;9.228;2024-02-26T00:53:05;35.82;35.19;36.52;;
47923;Laerm;33688;44.354;9.228;2024-02-26T00:55:31;35.81;35.12;36.57;;
47923;Laerm;33688;44.354;9.228;2024-02-26T00:57:57;35.81;35.14;38.24;;
47923;Laerm;33688;44.354;9.228;2024-02-26T01:00:22;35.81;35.15;36.63;;
47923;Laerm;33688;44.354;9.228;2024-02-26T01:02:48;35.82;35.13;36.66;;
47923;Laerm;33688;44.354;9.228;2024-02-26T01:05:14;35.81;35.10;36.73;;
47923;Laerm;33688;44.354;9.228;2024-02-26T01:07:42;35.81;35.13;36.63;;
47923;Laerm;33688;44.354;9.228;2024-02-26T01:10:08;35.80;34.92;37.68;;
47923;Laerm;33688;44.354;9.228;2024-02-26T01:12:35;35.81;35.11;44.54;;
47923;Laerm;33688;44.354;9.228;2024-02-26T01:15:02;35.80;35.16;36.69;;
47923;Laerm;33688;44.354;9.228;2024-02-26T01:17:29;35.80;35.16;37.51;;
47923;Laerm;33688;44.354;9.228;2024-02-26T01:19:55;35.83;35.16;44.02;;
47923;Laerm;33688;44.354;9.228;2024-02-26T01:22:21;35.80;35.14;36.51;;
47923;Laerm;33688;44.354;9.228;2024-02-26T01:24:48;35.81;35.03;36.69;;
47923;Laerm;33688;44.354;9.228;2024-02-26T01:27:15;35.81;35.18;37.64;;
47923;Laerm;33688;44.354;9.228;2024-02-26T01:29:41;35.96;35.21;49.50;;
47923;Laerm;33688;44.354;9.228;2024-02-26T01:32:07;35.81;35.15;36.73;;
47923;Laerm;33688;44.354;9.228;2024-02-26T01:34:33;35.80;35.18;36.69;;
47923;Laerm;33688;44.354;9.228;2024-02-26T01:37:00;35.83;35.03;42.87;;
47923;Laerm;33688;44.354;9.228;2024-02-26T01:39:26;35.80;35.00;36.75;;
47923;Laerm;33688;44.354;9.228;2024-02-26T01:41:54;35.79;34.95;36.54;;
47923;Laerm;33688;44.354;9.228;2024-02-26T01:44:20;35.81;34.88;36.57;;
47923;Laerm;33688;44.354;9.228;2024-02-26T01:46:47;35.80;35.18;37.34;;
47923;Laerm;33688;44.354;9.228;2024-02-26T01:49:13;35.79;34.98;36.84;;
47923;Laerm;33688;44.354;9.228;2024-02-26T01:51:41;35.80;35.18;40.02;;
47923;Laerm;33688;44.354;9.228;2024-02-26T01:54:09;35.78;35.08;36.66;;
47923;Laerm;33688;44.354;9.228;2024-02-26T01:56:37;35.80;35.09;40.22;;
47923;Laerm;33688;44.354;9.228;2024-02-26T01:59:05;35.78;34.99;36.65;;
47923;Laerm;33688;44.354;9.228;2024-02-26T02:01:33;35.79;35.06;37.53;;
47923;Laerm;33688;44.354;9.228;2024-02-26T02:04:00;35.79;35.11;36.65;;
47923;Laerm;33688;44.354;9.228;2024-02-26T02:06:27;35.79;35.12;36.53;;
47923;Laerm;33688;44.354;9.228;2024-02-26T02:08:56;35.80;35.13;38.72;;
47923;Laerm;33688;44.354;9.228;2024-02-26T02:11:22;35.80;35.10;38.31;;
47923;Laerm;33688;44.354;9.228;2024-02-26T02:13:48;35.79;35.04;36.55;;
47923;Laerm;33688;44.354;9.228;2024-02-26T02:16:16;35.79;34.89;36.67;;
47923;Laerm;33688;44.354;9.228;2024-02-26T02:18:41;35.82;35.16;41.46;;
47923;Laerm;33688;44.354;9.228;2024-02-26T02:21:08;35.78;35.10;36.90;;
47923;Laerm;33688;44.354;9.228;2024-02-26T02:23:34;35.81;35.10;42.76;;
47923;Laerm;33688;44.354;9.228;2024-02-26T02:26:00;35.80;35.17;36.76;;
47923;Laerm;33688;44.354;9.228;2024-02-26T02:28:26;35.78;35.18;36.67;;
47923;Laerm;33688;44.354;9.228;2024-02-26T02:30:53;35.78;35.08;36.54;;
47923;Laerm;33688;44.354;9.228;2024-02-26T02:33:21;35.79;35.02;37.07;;
47923;Laerm;33688;44.354;9.228;2024-02-26T02:35:49;35.81;35.15;39.03;;
47923;Laerm;33688;44.354;9.228;2024-02-26T02:38:16;35.82;35.15;43.12;;
47923;Laerm;33688;44.354;9.228;2024-02-26T02:40:42;35.81;35.07;37.47;;
47923;Laerm;33688;44.354;9.228;2024-02-26T02:43:09;35.81;35.08;37.32;;
47923;Laerm;33688;44.354;9.228;2024-02-26T02:45:34;35.83;35.13;43.16;;
47923;Laerm;33688;44.354;9.228;2024-02-26T02:48:00;35.80;35.02;40.44;;
47923;Laerm;33688;44.354;9.228;2024-02-26T02:50:26;35.81;35.17;36.57;;
47923;Laerm;33688;44.354;9.228;2024-02-26T02:52:54;35.91;34.99;41.59;;
47923;Laerm;33688;44.354;9.228;2024-02-26T02:55:20;35.79;34.96;36.51;;
47923;Laerm;33688;44.354;9.228;2024-02-26T02:57:45;35.81;35.01;40.24;;
47923;Laerm;33688;44.354;9.228;2024-02-26T03:00:12;35.80;34.99;36.63;;
47923;Laerm;33688;44.354;9.228;2024-02-26T03:02:38;35.81;35.06;37.55;;
47923;Laerm;33688;44.354;9.228;2024-02-26T03:05:05;35.80;35.06;36.62;;
47923;Laerm;33688;44.354;9.228;2024-02-26T03:07:31;35.79;35.11;36.55;;
47923;Laerm;33688;44.354;9.228;2024-02-26T03:09:57;35.77;35.19;36.76;;
47923;Laerm;33688;44.354;9.228;2024-02-26T03:12:23;35.79;35.07;38.64;;
47923;Laerm;33688;44.354;9.228;2024-02-26T03:14:50;35.77;35.00;36.62;;
47923;Laerm;33688;44.354;9.228;2024-02-26T03:17:15;35.79;35.03;36.60;;
47923;Laerm;33688;44.354;9.228;2024-02-26T03:19:41;35.77;35.12;37.50;;
47923;Laerm;33688;44.354;9.228;2024-02-26T03:22:07;35.78;35.00;36.49;;
47923;Laerm;33688;44.354;9.228;2024-02-26T03:24:33;35.77;35.04;36.56;;
47923;Laerm;33688;44.354;9.228;2024-02-26T03:26:58;35.81;35.03;46.15;;
47923;Laerm;33688;44.354;9.228;2024-02-26T03:29:24;35.78;34.97;36.55;;
47923;Laerm;33688;44.354;9.228;2024-02-26T03:31:50;35.80;35.09;43.46;;
47923;Laerm;33688;44.354;9.228;2024-02-26T03:34:16;35.77;35.06;36.70;;
47923;Laerm;33688;44.354;9.228;2024-02-26T03:36:42;35.79;35.13;36.84;;
47923;Laerm;33688;44.354;9.228;2024-02-26T03:39:10;35.78;35.15;36.82;;
47923;Laerm;33688;44.354;9.228;2024-02-26T03:41:35;35.77;35.14;37.69;;
47923;Laerm;33688;44.354;9.228;2024-02-26T03:44:02;35.77;35.07;36.53;;
47923;Laerm;33688;44.354;9.228;2024-02-26T03:46:28;35.76;35.02;36.48;;
47923;Laerm;33688;44.354;9.228;2024-02-26T03:48:54;35.77;34.89;36.81;;
47923;Laerm;33688;44.354;9.228;2024-02-26T03:51:19;35.79;35.19;38.13;;
47923;Laerm;33688;44.354;9.228;2024-02-26T03:53:45;35.78;34.92;40.54;;
47923;Laerm;33688;44.354;9.228;2024-02-26T03:56:12;35.77;35.07;36.57;;
47923;Laerm;33688;44.354;9.228;2024-02-26T03:58:40;35.76;34.92;36.73;;
47923;Laerm;33688;44.354;9.228;2024-02-26T04:01:09;35.78;34.88;36.48;;
47923;Laerm;33688;44.354;9.228;2024-02-26T04:03:35;35.86;35.07;38.77;;
47923;Laerm;33688;44.354;9.228;2024-02-26T04:06:02;35.79;34.99;37.68;;
47923;Laerm;33688;44.354;9.228;2024-02-26T04:08:28;35.79;35.08;37.96;;
47923;Laerm;33688;44.354;9.228;2024-02-26T04:10:54;35.78;35.06;36.69;;
47923;Laerm;33688;44.354;9.228;2024-02-26T04:13:19;35.78;35.08;36.70;;
47923;Laerm;33688;44.354;9.228;2024-02-26T04:15:45;35.78;35.03;36.69;;
47923;Laerm;33688;44.354;9.228;2024-02-26T04:18:13;35.79;35.00;36.55;;
47923;Laerm;33688;44.354;9.228;2024-02-26T04:20:39;35.77;35.09;36.47;;
47923;Laerm;33688;44.354;9.228;2024-02-26T04:23:07;35.79;35.00;39.10;;
47923;Laerm;33688;44.354;9.228;2024-02-26T04:25:33;35.77;34.99;37.01;;
47923;Laerm;33688;44.354;9.228;2024-02-26T04:27:59;35.77;35.08;39.16;;
47923;Laerm;33688;44.354;9.228;2024-02-26T04:30:24;35.77;34.96;39.21;;
47923;Laerm;33688;44.354;9.228;2024-02-26T04:32:50;35.80;35.07;36.67;;
47923;Laerm;33688;44.354;9.228;2024-02-26T04:35:16;35.79;35.08;36.72;;
47923;Laerm;33688;44.354;9.228;2024-02-26T04:37:41;35.80;35.10;36.57;;
47923;Laerm;33688;44.354;9.228;2024-02-26T04:40:08;35.81;35.09;39.01;;
47923;Laerm;33688;44.354;9.228;2024-02-26T04:42:35;35.82;35.05;36.75;;
47923;Laerm;33688;44.354;9.228;2024-02-26T04:45:00;35.81;35.13;36.94;;
47923;Laerm;33688;44.354;9.228;2024-02-26T04:47:26;37.07;35.11;55.86;;
47923;Laerm;33688;44.354;9.228;2024-02-26T04:49:52;36.75;35.20;55.43;;
47923;Laerm;33688;44.354;9.228;2024-02-26T04:52:18;35.80;34.96;36.54;;
47923;Laerm;33688;44.354;9.228;2024-02-26T04:54:44;35.81;34.98;37.44;;
47923;Laerm;33688;44.354;9.228;2024-02-26T04:57:10;35.80;35.08;36.81;;
47923;Laerm;33688;44.354;9.228;2024-02-26T04:59:36;35.85;35.07;43.18;;
47923;Laerm;33688;44.354;9.228;2024-02-26T05:02:03;36.07;35.11;48.31;;
47923;Laerm;33688;44.354;9.228;2024-02-26T05:04:29;35.82;35.09;36.57;;
47923;Laerm;33688;44.354;9.228;2024-02-26T05:06:54;35.83;35.00;41.21;;
47923;Laerm;33688;44.354;9.228;2024-02-26T05:09:20;35.88;34.96;47.06;;
47923;Laerm;33688;44.354;9.228;2024-02-26T05:11:46;35.86;35.08;37.71;;
47923;Laerm;33688;44.354;9.228;2024-02-26T05:14:12;35.87;35.14;38.26;;
47923;Laerm;33688;44.354;9.228;2024-02-26T05:16:38;36.02;35.16;42.04;;
47923;Laerm;33688;44.354;9.228;2024-02-26T05:19:05;35.78;34.98;36.66;;
47923;Laerm;33688;44.354;9.228;2024-02-26T05:21:31;35.77;35.00;36.60;;
47923;Laerm;33688;44.354;9.228;2024-02-26T05:23:59;35.78;35.17;36.50;;
47923;Laerm;33688;44.354;9.228;2024-02-26T05:26:24;35.80;35.04;36.81;;
47923;Laerm;33688;44.354;9.228;2024-02-26T05:28:51;35.80;34.93;42.48;;
47923;Laerm;33688;44.354;9.228;2024-02-26T05:31:17;35.86;34.95;38.58;;
47923;Laerm;33688;44.354;9.228;2024-02-26T05:33:43;35.78;35.06;37.36;;
47923;Laerm;33688;44.354;9.228;2024-02-26T05:36:09;35.79;34.99;36.54;;
47923;Laerm;33688;44.354;9.228;2024-02-26T05:38:35;35.78;35.11;39.26;;
47923;Laerm;33688;44.354;9.228;2024-02-26T05:41:01;35.80;35.21;38.17;;
47923;Laerm;33688;44.354;9.228;2024-02-26T05:43:27;35.80;35.17;36.66;;
47923;Laerm;33688;44.354;9.228;2024-02-26T05:45:53;36.09;35.05;50.40;;
47923;Laerm;33688;44.354;9.228;2024-02-26T05:48:20;35.80;35.12;40.07;;
47923;Laerm;33688;44.354;9.228;2024-02-26T05:50:46;35.79;34.79;36.85;;
47923;Laerm;33688;44.354;9.228;2024-02-26T05:53:15;35.80;35.12;36.79;;
47923;Laerm;33688;44.354;9.228;2024-02-26T05:55:41;35.80;35.06;36.66;;
47923;Laerm;33688;44.354;9.228;2024-02-26T05:58:07;35.80;35.11;40.84;;
47923;Laerm;33688;44.354;9.228;2024-02-26T06:00:33;35.86;35.08;39.23;;
47923;Laerm;33688;44.354;9.228;2024-02-26T06:02:58;35.86;35.11;37.46;;
47923;Laerm;33688;44.354;9.228;2024-02-26T06:05:24;36.62;35.16;52.65;;
47923;Laerm;33688;44.354;9.228;2024-02-26T06:07:50;35.83;35.04;41.41;;
47923;Laerm;33688;44.354;9.228;2024-02-26T06:10:16;35.80;35.03;40.27;;
47923;Laerm;33688;44.354;9.228;2024-02-26T06:12:42;35.82;35.10;36.74;;
47923;Laerm;33688;44.354;9.228;2024-02-26T06:15:09;35.80;35.07;38.09;;
47923;Laerm;33688;44.354;9.228;2024-02-26T06:17:35;36.03;35.04;41.42;;
47923;Laerm;33688;44.354;9.228;2024-02-26T06:20:01;35.84;35.00;39.78;;
47923;Laerm;33688;44.354;9.228;2024-02-26T06:22:27;36.45;35.17;40.74;;
47923;Laerm;33688;44.354;9.228;2024-02-26T06:24:52;35.88;35.04;40.82;;
47923;Laerm;33688;44.354;9.228;2024-02-26T06:27:18;35.92;35.10;42.46;;
47923;Laerm;33688;44.354;9.228;2024-02-26T06:29:44;35.84;35.14;37.73;;
47923;Laerm;33688;44.354;9.228;2024-02-26T06:32:10;36.03;35.19;48.78;;
47923;Laerm;33688;44.354;9.228;2024-02-26T06:34:36;35.89;35.09;42.36;;
47923;Laerm;33688;44.354;9.228;2024-02-26T06:37:04;35.88;35.12;39.89;;
47923;Laerm;33688;44.354;9.228;2024-02-26T06:39:30;35.98;35.09;38.99;;
47923;Laerm;33688;44.354;9.228;2024-02-26T06:41:56;36.26;35.17;51.41;;
47923;Laerm;33688;44.354;9.228;2024-02-26T06:44:27;35.90;35.24;45.10;;
47923;Laerm;33688;44.354;9.228;2024-02-26T06:46:58;35.98;35.16;39.77;;
47923;Laerm;33688;44.354;9.228;2024-02-26T06:49:27;38.48;35.21;47.40;;
47923;Laerm;33688;44.354;9.228;2024-02-26T06:51:53;35.92;35.18;43.11;;
47923;Laerm;33688;44.354;9.228;2024-02-26T06:54:19;35.91;35.18;41.50;;
47923;Laerm;33688;44.354;9.228;2024-02-26T06:56:45;36.00;34.93;47.48;;
47923;Laerm;33688;44.354;9.228;2024-02-26T06:59:11;36.41;35.27;55.31;;
47923;Laerm;33688;44.354;9.228;2024-02-26T07:01:36;36.08;35.11;45.18;;
47923;Laerm;33688;44.354;9.228;2024-02-26T07:04:02;35.94;35.15;42.23;;
47923;Laerm;33688;44.354;9.228;2024-02-26T07:06:28;35.95;35.22;46.38;;
47923;Laerm;33688;44.354;9.228;2024-02-26T07:08:54;35.88;35.15;39.83;;
47923;Laerm;33688;44.354;9.228;2024-02-26T07:11:19;36.13;35.05;43.47;;
47923;Laerm;33688;44.354;9.228;2024-02-26T07:13:46;35.95;35.22;39.52;;
47923;Laerm;33688;44.354;9.228;2024-02-26T07:16:12;36.24;35.02;51.16;;
47923;Laerm;33688;44.354;9.228;2024-02-26T07:18:39;38.31;35.19;63.61;;
47923;Laerm;33688;44.354;9.228;2024-02-26T07:21:05;36.47;35.20;46.57;;
47923;Laerm;33688;44.354;9.228;2024-02-26T07:23:31;36.19;35.15;51.24;;
47923;Laerm;33688;44.354;9.228;2024-02-26T07:25:57;36.48;35.15;46.91;;
47923;Laerm;33688;44.354;9.228;2024-02-26T07:28:24;46.40;35.22;68.13;;
47923;Laerm;33688;44.354;9.228;2024-02-26T07:30:49;50.43;35.53;66.46;;
47923;Laerm;33688;44.354;9.228;2024-02-26T07:33:15;50.38;35.49;67.21;;
47923;Laerm;33688;44.354;9.228;2024-02-26T07:35:41;42.14;35.42;57.36;;
47923;Laerm;33688;44.354;9.228;2024-02-26T07:38:07;47.78;35.39;63.02;;
47923;Laerm;33688;44.354;9.228;2024-02-26T07:40:32;47.91;35.54;63.87;;
47923;Laerm;33688;44.354;9.228;2024-02-26T07:42:58;48.17;35.79;65.50;;
47923;Laerm;33688;44.354;9.228;2024-02-26T07:45:24;48.08;35.52;63.39;;
47923;Laerm;33688;44.354;9.228;2024-02-26T07:47:50;38.91;35.41;56.17;;
47923;Laerm;33688;44.354;9.228;2024-02-26T07:50:17;43.18;35.53;62.65;;
47923;Laerm;33688;44.354;9.228;2024-02-26T07:52:45;56.04;36.34;77.21;;
47923;Laerm;33688;44.354;9.228;2024-02-26T07:55:11;54.64;41.47;71.98;;
47923;Laerm;33688;44.354;9.228;2024-02-26T07:57:37;56.98;41.25;80.79;;
47923;Laerm;33688;44.354;9.228;2024-02-26T08:00:04;61.94;41.49;79.33;;
47923;Laerm;33688;44.354;9.228;2024-02-26T08:02:36;48.54;40.29;69.94;;
47923;Laerm;33688;44.354;9.228;2024-02-26T08:05:03;57.60;40.50;84.84;;
47923;Laerm;33688;44.354;9.228;2024-02-26T08:07:31;43.37;40.61;62.31;;
47923;Laerm;33688;44.354;9.228;2024-02-26T08:09:58;45.41;40.66;62.70;;
47923;Laerm;33688;44.354;9.228;2024-02-26T08:12:46;46.82;41.00;65.16;;
47923;Laerm;33688;44.354;9.228;2024-02-26T08:15:12;57.90;41.69;85.02;;
47923;Laerm;33688;44.354;9.228;2024-02-26T08:17:38;44.89;41.25;62.92;;
47923;Laerm;33688;44.354;9.228;2024-02-26T08:20:05;51.99;41.01;78.14;;
47923;Laerm;33688;44.354;9.228;2024-02-26T08:22:32;54.83;40.95;73.40;;
47923;Laerm;33688;44.354;9.228;2024-02-26T08:24:58;51.80;40.95;72.00;;
47923;Laerm;33688;44.354;9.228;2024-02-26T08:27:24;58.21;41.55;76.51;;
47923;Laerm;33688;44.354;9.228;2024-02-26T08:29:50;61.58;42.19;74.92;;
47923;Laerm;33688;44.354;9.228;2024-02-26T08:32:16;62.99;41.60;92.19;;
47923;Laerm;33688;44.354;9.228;2024-02-26T08:34:42;60.47;41.47;86.42;;
47923;Laerm;33688;44.354;9.228;2024-02-26T08:37:08;47.50;41.61;70.55;;
47923;Laerm;33688;44.354;9.228;2024-02-26T08:39:34;50.91;42.40;63.94;;
47923;Laerm;33688;44.354;9.228;2024-02-26T08:42:00;51.92;42.90;72.38;;
47923;Laerm;33688;44.354;9.228;2024-02-26T08:44:26;57.24;42.87;82.12;;
47923;Laerm;33688;44.354;9.228;2024-02-26T08:46:52;49.43;41.93;60.73;;
47923;Laerm;33688;44.354;9.228;2024-02-26T08:49:18;50.81;41.95;68.31;;
47923;Laerm;33688;44.354;9.228;2024-02-26T08:51:45;48.45;41.96;63.67;;
47923;Laerm;33688;44.354;9.228;2024-02-26T08:54:11;51.42;42.32;65.43;;
47923;Laerm;33688;44.354;9.228;2024-02-26T08:56:37;54.66;41.92;70.39;;
47923;Laerm;33688;44.354;9.228;2024-02-26T08:59:03;53.27;41.85;70.12;;
47923;Laerm;33688;44.354;9.228;2024-02-26T09:01:31;56.60;42.05;82.48;;
47923;Laerm;33688;44.354;9.228;2024-02-26T09:03:58;48.91;42.04;65.99;;
47923;Laerm;33688;44.354;9.228;2024-02-26T09:06:24;60.69;42.26;74.13;;
47923;Laerm;33688;44.354;9.228;2024-02-26T09:08:49;50.87;42.10;74.54;;
47923;Laerm;33688;44.354;9.228;2024-02-26T09:11:16;47.70;41.94;63.90;;
47923;Laerm;33688;44.354;9.228;2024-02-26T09:13:41;46.65;41.67;63.44;;
47923;Laerm;33688;44.354;9.228;2024-02-26T09:16:11;47.16;41.71;61.16;;
47923;Laerm;33688;44.354;9.228;2024-02-26T09:18:39;47.54;41.65;64.23;;
47923;Laerm;33688;44.354;9.228;2024-02-26T09:21:05;50.69;42.08;69.12;;
47923;Laerm;33688;44.354;9.228;2024-02-26T09:23:33;61.60;42.40;78.62;;
47923;Laerm;33688;44.354;9.228;2024-02-26T09:26:21;51.41;42.02;75.04;;
47923;Laerm;33688;44.354;9.228;2024-02-26T09:28:46;47.60;41.91;62.85;;
47923;Laerm;33688;44.354;9.228;2024-02-26T09:31:15;53.37;41.92;69.98;;
47923;Laerm;33688;44.354;9.228;2024-02-26T09:33:43;52.90;41.88;68.76;;
47923;Laerm;33688;44.354;9.228;2024-02-26T09:36:09;51.32;41.96;72.14;;
47923;Laerm;33688;44.354;9.228;2024-02-26T09:38:37;49.35;41.83;72.38;;
47923;Laerm;33688;44.354;9.228;2024-02-26T09:41:06;46.38;41.78;68.82;;
47923;Laerm;33688;44.354;9.228;2024-02-26T09:43:44;43.12;41.44;58.58;;
47923;Laerm;33688;44.354;9.228;2024-02-26T09:46:13;45.40;41.44;62.44;;
47923;Laerm;33688;44.354;9.228;2024-02-26T09:49:01;45.82;41.43;63.35;;
47923;Laerm;33688;44.354;9.228;2024-02-26T09:51:28;47.60;41.66;64.36;;
47923;Laerm;33688;44.354;9.228;2024-02-26T09:53:56;52.51;41.83;69.88;;
47923;Laerm;33688;44.354;9.228;2024-02-26T09:56:25;53.78;42.02;71.24;;
47923;Laerm;33688;44.354;9.228;2024-02-26T09:58:52;47.98;41.59;60.88;;
47923;Laerm;33688;44.354;9.228;2024-02-26T10:01:22;54.72;41.32;68.58;;
47923;Laerm;33688;44.354;9.228;2024-02-26T10:03:59;63.51;41.40;93.68;;
47923;Laerm;33688;44.354;9.228;2024-02-26T10:06:26;55.59;41.67;67.91;;
47923;Laerm;33688;44.354;9.228;2024-02-26T10:08:56;57.51;41.95;82.25;;
47923;Laerm;33688;44.354;9.228;2024-02-26T10:11:25;61.10;42.44;89.86;;
47923;Laerm;33688;44.354;9.228;2024-02-26T10:13:53;53.27;41.81;67.55;;
47923;Laerm;33688;44.354;9.228;2024-02-26T10:16:19;54.91;42.12;69.59;;
47923;Laerm;33688;44.354;9.228;2024-02-26T10:18:49;52.49;41.95;69.31;;
47923;Laerm;33688;44.354;9.228;2024-02-26T10:21:21;47.00;42.11;63.17;;
47923;Laerm;33688;44.354;9.228;2024-02-26T10:23:48;50.42;42.09;67.77;;
47923;Laerm;33688;44.354;9.228;2024-02-26T10:26:15;53.51;42.02;66.89;;
47923;Laerm;33688;44.354;9.228;2024-02-26T10:28:44;54.84;42.18;67.58;;
47923;Laerm;33688;44.354;9.228;2024-02-26T10:31:11;52.11;42.27;65.16;;
47923;Laerm;33688;44.354;9.228;2024-02-26T10:33:38;51.46;41.60;63.38;;
47923;Laerm;33688;44.354;9.228;2024-02-26T10:36:05;48.89;41.46;65.89;;
47923;Laerm;33688;44.354;9.228;2024-02-26T10:38:35;50.27;41.39;75.36;;
47923;Laerm;33688;44.354;9.228;2024-02-26T10:41:04;49.90;41.57;66.00;;
47923;Laerm;33688;44.354;9.228;2024-02-26T10:43:31;47.83;42.10;64.24;;
47923;Laerm;33688;44.354;9.228;2024-02-26T10:45:57;46.13;42.02;64.12;;
47923;Laerm;33688;44.354;9.228;2024-02-26T10:48:24;50.87;41.72;66.63;;
47923;Laerm;33688;44.354;9.228;2024-02-26T10:50:50;47.64;41.07;65.71;;
47923;Laerm;33688;44.354;9.228;2024-02-26T10:53:20;47.27;41.32;64.60;;
47923;Laerm;33688;44.354;9.228;2024-02-26T10:55:55;50.69;40.68;71.73;;
47923;Laerm;33688;44.354;9.228;2024-02-26T10:58:25;48.72;41.10;69.84;;
47923;Laerm;33688;44.354;9.228;2024-02-26T11:00:53;46.02;40.46;62.83;;
47923;Laerm;33688;44.354;9.228;2024-02-26T11:03:22;49.28;40.66;66.84;;
47923;Laerm;33688;44.354;9.228;2024-02-26T11:05:49;46.78;40.52;65.09;;
47923;Laerm;33688;44.354;9.228;2024-02-26T11:08:34;50.34;40.58;71.93;;
47923;Laerm;33688;44.354;9.228;2024-02-26T11:11:01;45.49;41.73;60.87;;
47923;Laerm;33688;44.354;9.228;2024-02-26T11:13:32;45.43;40.89;63.16;;
47923;Laerm;33688;44.354;9.228;2024-02-26T11:15:58;48.33;40.76;75.77;;
47923;Laerm;33688;44.354;9.228;2024-02-26T11:18:27;45.12;41.07;60.95;;
47923;Laerm;33688;44.354;9.228;2024-02-26T11:20:54;52.10;41.35;69.28;;
47923;Laerm;33688;44.354;9.228;2024-02-26T11:23:23;43.02;40.51;55.61;;
47923;Laerm;33688;44.354;9.228;2024-02-26T11:25:51;43.61;40.27;58.38;;
47923;Laerm;33688;44.354;9.228;2024-02-26T11:28:19;43.56;41.39;57.54;;
47923;Laerm;33688;44.354;9.228;2024-02-26T11:30:49;44.19;40.98;60.49;;
47923;Laerm;33688;44.354;9.228;2024-02-26T11:33:15;46.50;41.55;62.44;;
47923;Laerm;33688;44.354;9.228;2024-02-26T11:35:42;48.02;41.48;66.61;;
47923;Laerm;33688;44.354;9.228;2024-02-26T11:38:19;47.78;40.79;73.50;;
47923;Laerm;33688;44.354;9.228;2024-02-26T11:40:47;46.98;40.94;69.88;;
47923;Laerm;33688;44.354;9.228;2024-02-26T11:43:13;43.95;40.34;67.27;;
47923;Laerm;33688;44.354;9.228;2024-02-26T11:48:17;42.44;40.93;51.15;;
47923;Laerm;33688;44.354;9.228;2024-02-26T11:50:51;42.71;40.94;51.63;;
47923;Laerm;33688;44.354;9.228;2024-02-26T11:53:28;44.80;41.22;67.52;;
47923;Laerm;33688;44.354;9.228;2024-02-26T11:58:46;43.23;40.95;63.18;;
47923;Laerm;33688;44.354;9.228;2024-02-26T12:01:40;42.73;40.77;47.50;;
47923;Laerm;33688;44.354;9.228;2024-02-26T12:04:18;42.59;40.76;53.99;;
47923;Laerm;33688;44.354;9.228;2024-02-26T12:06:58;42.41;40.52;45.34;;
47923;Laerm;33688;44.354;9.228;2024-02-26T12:09:40;42.60;40.83;45.80;;
47923;Laerm;33688;44.354;9.228;2024-02-26T12:12:17;42.70;41.02;52.52;;
47923;Laerm;33688;44.354;9.228;2024-02-26T12:14:56;42.92;41.12;56.44;;
47923;Laerm;33688;44.354;9.228;2024-02-26T12:17:24;42.91;40.85;54.30;;
47923;Laerm;33688;44.354;9.228;2024-02-26T12:19:50;47.95;41.05;75.08;;
47923;Laerm;33688;44.354;9.228;2024-02-26T12:22:18;43.61;40.61;65.03;;
47923;Laerm;33688;44.354;9.228;2024-02-26T12:24:44;42.98;41.03;59.01;;
47923;Laerm;33688;44.354;9.228;2024-02-26T12:27:10;42.07;40.96;49.03;;
47923;Laerm;33688;44.354;9.228;2024-02-26T12:29:39;42.21;40.69;51.31;;
47923;Laerm;33688;44.354;9.228;2024-02-26T12:32:06;42.65;41.08;55.05;;
47923;Laerm;33688;44.354;9.228;2024-02-26T12:34:32;42.01;40.97;46.67;;
47923;Laerm;33688;44.354;9.228;2024-02-26T12:36:59;42.26;41.00;50.68;;
47923;Laerm;33688;44.354;9.228;2024-02-26T12:39:26;42.30;40.73;51.98;;
47923;Laerm;33688;44.354;9.228;2024-02-26T12:41:52;42.29;40.71;50.93;;
47923;Laerm;33688;44.354;9.228;2024-02-26T12:44:18;42.17;41.02;51.72;;
47923;Laerm;33688;44.354;9.228;2024-02-26T12:46:49;42.35;41.08;53.56;;
47923;Laerm;33688;44.354;9.228;2024-02-26T12:49:15;42.31;40.67;52.34;;
47923;Laerm;33688;44.354;9.228;2024-02-26T12:51:44;42.43;41.08;49.30;;
47923;Laerm;33688;44.354;9.228;2024-02-26T12:54:11;42.61;41.20;52.21;;
47923;Laerm;33688;44.354;9.228;2024-02-26T12:56:38;42.49;40.90;55.13;;
47923;Laerm;33688;44.354;9.228;2024-02-26T12:59:05;46.05;41.57;68.94;;
47923;Laerm;33688;44.354;9.228;2024-02-26T13:01:31;49.11;41.77;66.62;;
47923;Laerm;33688;44.354;9.228;2024-02-26T13:03:57;45.23;41.16;67.08;;
47923;Laerm;33688;44.354;9.228;2024-02-26T13:06:26;42.35;41.08;52.29;;
47923;Laerm;33688;44.354;9.228;2024-02-26T13:08:57;42.51;41.00;54.31;;
47923;Laerm;33688;44.354;9.228;2024-02-26T13:11:24;42.41;41.10;53.28;;
47923;Laerm;33688;44.354;9.228;2024-02-26T13:13:50;43.02;40.90;58.10;;
47923;Laerm;33688;44.354;9.228;2024-02-26T13:16:16;42.99;40.93;57.28;;
47923;Laerm;33688;44.354;9.228;2024-02-26T13:18:42;42.24;40.87;51.85;;
47923;Laerm;33688;44.354;9.228;2024-02-26T13:21:15;43.77;40.66;57.29;;
47923;Laerm;33688;44.354;9.228;2024-02-26T13:23:43;52.63;40.96;75.38;;
47923;Laerm;33688;44.354;9.228;2024-02-26T13:26:12;44.76;40.62;62.73;;
47923;Laerm;33688;44.354;9.228;2024-02-26T13:28:40;50.37;40.57;69.88;;
47923;Laerm;33688;44.354;9.228;2024-02-26T13:31:06;57.88;40.56;74.13;;
47923;Laerm;33688;44.354;9.228;2024-02-26T13:33:35;48.75;41.02;68.89;;
47923;Laerm;33688;44.354;9.228;2024-02-26T13:36:01;49.44;41.10;69.61;;
47923;Laerm;33688;44.354;9.228;2024-02-26T13:38:27;52.50;40.82;69.26;;
47923;Laerm;33688;44.354;9.228;2024-02-26T13:40:56;46.16;40.91;63.65;;
47923;Laerm;33688;44.354;9.228;2024-02-26T13:43:21;44.36;40.88;58.36;;
47923;Laerm;33688;44.354;9.228;2024-02-26T13:45:47;42.76;40.66;53.94;;
47923;Laerm;33688;44.354;9.228;2024-02-26T13:48:15;48.83;40.47;66.15;;
47923;Laerm;33688;44.354;9.228;2024-02-26T13:50:42;46.40;40.77;65.71;;